Time;durP1;ratioP1;P1;durP2;ratioP2;P2;SDS_P1;SDS_P2;PMS_P1;PMS_P2;Temp;Humidity;BMP_temperature;BMP_pressure;BME280_temperature;BME280_humidity;BME280_pressure;Samples;Min_cycle;Max_cycle;Signal;HPM_P1;HPM_P2
2022/09/12 00:01:47;;;;;;;9.40;5.67;;;12.30;84.70;;;;;;5115831;28;20194;-88
2022/09/12 00:04:13;;;;;;;6.00;5.07;;;12.30;84.80;;;;;;5115466;28;20225;-89
2022/09/12 00:06:39;;;;;;;5.30;4.80;;;12.30;85.60;;;;;;5115177;28;20690;-87
2022/09/12 00:09:10;;;;;;;5.80;4.87;;;12.20;85.40;;;;;;5115397;28;20337;-87
2022/09/12 00:11:38;;;;;;;4.80;4.20;;;12.20;85.10;;;;;;5115469;28;20700;-88
2022/09/12 00:14:05;;;;;;;5.37;3.67;;;12.20;85.00;;;;;;5115187;28;20245;-88
2022/09/12 00:16:33;;;;;;;4.83;4.00;;;12.20;84.90;;;;;;5114945;28;20194;-88
2022/09/12 00:19:00;;;;;;;4.87;4.43;;;12.10;84.70;;;;;;5114993;28;20608;-88
2022/09/12 00:21:26;;;;;;;5.00;4.50;;;12.10;84.70;;;;;;5115975;28;20272;-88
2022/09/12 00:23:52;;;;;;;5.00;3.90;;;12.10;84.80;;;;;;5115897;28;20202;-88
2022/09/12 00:26:19;;;;;;;4.23;3.93;;;12.00;84.80;;;;;;5115964;28;20198;-88
2022/09/12 00:28:46;;;;;;;3.93;3.63;;;12.00;84.80;;;;;;5114234;28;20178;-88
2022/09/12 00:31:18;;;;;;;5.30;4.80;;;12.00;84.70;;;;;;5114828;28;20618;-88
2022/09/12 00:33:43;;;;;;;6.60;4.10;;;12.00;84.70;;;;;;5115982;28;20274;-89
2022/09/12 00:36:13;;;;;;;7.60;4.77;;;12.00;84.60;;;;;;5116305;28;20186;-89
2022/09/12 00:38:40;;;;;;;5.67;5.17;;;11.90;84.50;;;;;;5116022;28;20674;-89
2022/09/12 00:41:12;;;;;;;5.97;4.60;;;11.90;84.30;;;;;;5114567;28;20192;-89
2022/09/12 00:44:15;;;;;;;5.93;4.97;;;11.90;84.30;;;;;;5114653;28;20205;-89
2022/09/12 00:46:45;;;;;;;6.30;4.77;;;11.80;84.10;;;;;;5104775;28;20202;-89
2022/09/12 00:49:28;;;;;;;6.23;5.27;;;11.80;84.00;;;;;;5114405;28;20166;-89
2022/09/12 00:52:03;;;;;;;6.07;4.20;;;11.70;83.80;;;;;;5115304;28;20163;-88
2022/09/12 00:54:49;;;;;;;4.77;4.33;;;11.70;83.70;;;;;;5114318;28;20173;-88
2022/09/12 00:57:15;;;;;;;6.93;4.40;;;11.70;83.60;;;;;;5115553;28;20190;-88
2022/09/12 00:59:46;;;;;;;5.67;5.10;;;11.60;83.60;;;;;;5114547;28;20611;-88
2022/09/12 01:02:12;;;;;;;14.93;5.37;;;11.60;83.50;;;;;;5114127;28;20190;-88
2022/09/12 01:04:40;;;;;;;7.03;5.97;;;11.60;83.50;;;;;;5114060;28;20202;-88
2022/09/12 01:07:07;;;;;;;11.60;8.80;;;11.60;83.50;;;;;;5114209;28;20247;-88
2022/09/12 01:09:33;;;;;;;16.43;10.90;;;11.60;83.40;;;;;;5113933;28;20166;-88
2022/09/12 01:12:01;;;;;;;14.07;11.50;;;11.50;83.50;;;;;;5113997;28;20174;-88
2022/09/12 01:14:28;;;;;;;12.23;10.47;;;11.50;83.60;;;;;;5113820;28;20184;-88
2022/09/12 01:16:53;;;;;;;11.83;9.50;;;11.50;83.60;;;;;;5115094;28;20185;-88
2022/09/12 01:19:37;;;;;;;11.60;9.00;;;11.40;83.60;;;;;;5115277;28;20201;-88
2022/09/12 01:22:22;;;;;;;11.57;7.93;;;11.40;83.60;;;;;;5115434;28;20165;-88
2022/09/12 01:24:53;;;;;;;17.23;10.50;;;11.30;84.00;;;;;;5113691;28;20208;-88
2022/09/12 01:27:34;;;;;;;15.53;9.67;;;11.30;84.60;;;;;;5113850;28;20190;-88
2022/09/12 01:30:23;;;;;;;8.93;7.33;;;11.30;85.00;;;;;;5113729;28;20162;-88
2022/09/12 01:33:13;;;;;;;6.63;6.03;;;11.30;85.40;;;;;;5113674;28;20214;-89
2022/09/12 01:35:45;;;;;;;20.30;6.97;;;11.30;85.70;;;;;;5114061;28;20185;-88
2022/09/12 01:38:19;;;;;;;19.83;5.30;;;11.10;86.10;;;;;;5114038;28;20265;-89
2022/09/12 01:41:12;;;;;;;45.87;5.13;;;11.00;86.60;;;;;;5113114;28;20166;-88
2022/09/12 01:44:09;;;;;;;11.37;5.13;;;10.90;87.10;;;;;;5113576;28;20194;-89
2022/09/12 01:46:50;;;;;;;17.13;4.53;;;10.70;87.60;;;;;;5113457;28;20190;-87
2022/09/12 01:49:34;;;;;;;6.10;5.60;;;10.70;88.00;;;;;;5113602;28;20257;-88
2022/09/12 01:52:06;;;;;;;31.73;5.27;;;10.70;88.50;;;;;;5113699;28;20162;-88
2022/09/12 01:54:41;;;;;;;14.30;4.77;;;10.60;88.80;;;;;;5113577;28;20166;-88
2022/09/12 01:57:17;;;;;;;6.73;4.23;;;10.60;89.00;;;;;;5113586;28;20201;-89
2022/09/12 01:59:47;;;;;;;7.97;4.27;;;10.60;89.20;;;;;;5113797;28;20166;-88
2022/09/12 02:02:39;;;;;;;4.10;3.80;;;10.60;89.20;;;;;;5114866;28;20186;-88
2022/09/12 02:05:09;;;;;;;16.17;4.77;;;10.60;89.30;;;;;;5107215;28;20217;-88
2022/09/12 02:07:44;;;;;;;4.93;4.53;;;10.60;89.40;;;;;;5114751;28;20558;-88
2022/09/12 02:10:28;;;;;;;5.93;3.87;;;10.60;89.40;;;;;;5114684;28;20194;-88
2022/09/12 02:12:57;;;;;;;4.40;4.10;;;10.70;89.40;;;;;;5113326;28;20167;-89
2022/09/12 02:15:29;;;;;;;8.30;5.97;;;10.70;89.40;;;;;;5113461;28;20177;-88
2022/09/12 02:17:56;;;;;;;7.07;6.43;;;10.70;89.30;;;;;;5113365;28;20538;-88
2022/09/12 02:20:29;;;;;;;20.93;9.80;;;10.70;89.30;;;;;;5113391;28;20174;-88
2022/09/12 02:22:56;;;;;;;7.43;6.80;;;10.70;89.40;;;;;;5113150;28;20170;-88
2022/09/12 02:25:24;;;;;;;6.90;6.30;;;10.70;89.40;;;;;;5114567;28;20177;-88
2022/09/12 02:27:57;;;;;;;6.43;5.77;;;10.70;89.40;;;;;;5113331;28;20720;-88
2022/09/12 02:30:23;;;;;;;5.80;5.30;;;10.70;89.40;;;;;;5113129;28;20190;-88
2022/09/12 02:33:13;;;;;;;14.60;5.33;;;10.70;89.40;;;;;;5113345;28;20173;-89
2022/09/12 02:35:49;;;;;;;14.50;5.00;;;10.70;89.30;;;;;;5113005;28;20258;-88
2022/09/12 02:38:26;;;;;;;10.93;4.80;;;10.70;89.20;;;;;;5113162;28;20241;-89
2022/09/12 02:40:53;;;;;;;87.13;7.80;;;10.70;89.20;;;;;;5114704;28;20657;-88
2022/09/12 02:43:18;;;;;;;30.60;7.70;;;10.80;89.10;;;;;;5114636;28;20182;-88
2022/09/12 02:45:44;;;;;;;24.83;7.40;;;10.70;89.00;;;;;;5113130;28;20204;-89
2022/09/12 02:48:18;;;;;;;10.40;6.60;;;10.70;88.90;;;;;;5113123;28;20572;-88
2022/09/12 02:50:44;;;;;;;6.93;5.97;;;10.80;88.80;;;;;;5114566;28;20162;-88
2022/09/12 02:53:10;;;;;;;6.43;5.20;;;10.80;88.80;;;;;;5115878;28;20170;-89
2022/09/12 02:55:37;;;;;;;10.47;4.90;;;10.80;88.70;;;;;;5117037;28;20222;-88
2022/09/12 02:58:07;;;;;;;17.20;6.90;;;10.80;88.60;;;;;;5118478;28;20166;-88
2022/09/12 03:01:16;;;;;;;21.53;6.60;;;10.80;88.50;;;;;;5116939;28;20219;-89
2022/09/12 03:04:23;;;;;;;29.53;6.40;;;10.60;88.60;;;;;;5116823;28;20235;-89
2022/09/12 03:07:30;;;;;;;6.17;5.57;;;10.30;89.00;;;;;;5098178;28;20197;-88
2022/09/12 03:10:09;;;;;;;6.20;5.60;;;10.30;89.30;;;;;;5075477;28;20262;-88
2022/09/12 03:12:45;;;;;;;16.03;5.50;;;10.40;89.40;;;;;;5109504;28;20181;-88
2022/09/12 03:15:42;;;;;;;7.27;4.70;;;10.50;89.40;;;;;;5118008;28;20173;-88
2022/09/12 03:18:18;;;;;;;9.17;5.10;;;10.50;89.50;;;;;;5116809;28;20235;-88
2022/09/12 03:21:03;;;;;;;5.93;5.23;;;10.50;89.40;;;;;;5116944;28;20201;-88
2022/09/12 03:23:51;;;;;;;41.70;7.17;;;10.60;89.40;;;;;;5116707;28;20246;-88
2022/09/12 03:26:26;;;;;;;14.83;6.33;;;10.60;89.40;;;;;;5117969;28;20740;-87
2022/09/12 03:28:53;;;;;;;7.53;5.60;;;10.70;89.50;;;;;;5116369;28;20166;-87
2022/09/12 03:31:19;;;;;;;5.90;5.43;;;10.70;89.40;;;;;;5116321;28;20174;-87
2022/09/12 03:33:45;;;;;;;12.73;5.90;;;10.60;89.50;;;;;;5116393;28;20182;-87
2022/09/12 03:36:25;;;;;;;6.37;4.67;;;10.70;89.50;;;;;;5117637;28;20220;-87
2022/09/12 03:38:51;;;;;;;18.30;5.50;;;10.70;89.50;;;;;;5117428;28;20499;-87
2022/09/12 03:41:16;;;;;;;29.60;6.20;;;10.70;89.60;;;;;;5117399;28;20170;-87
2022/09/12 03:43:42;;;;;;;33.40;4.90;;;10.60;89.60;;;;;;5115747;28;20225;-88
2022/09/12 03:46:07;;;;;;;23.63;5.70;;;10.40;89.70;;;;;;5116215;28;20273;-87
2022/09/12 03:48:33;;;;;;;16.40;6.53;;;10.30;89.80;;;;;;5117315;28;20249;-87
2022/09/12 03:51:00;;;;;;;5.80;5.30;;;10.30;90.10;;;;;;5116041;28;20170;-87
2022/09/12 03:53:26;;;;;;;6.27;5.53;;;10.40;90.10;;;;;;5117316;27;20201;-87
2022/09/12 03:55:51;;;;;;;9.57;5.63;;;10.40;90.20;;;;;;5116002;28;20198;-88
2022/09/12 03:58:17;;;;;;;9.70;5.63;;;10.50;90.30;;;;;;5117464;28;20193;-87
2022/09/12 04:00:43;;;;;;;14.60;5.23;;;10.30;90.10;;;;;;5117412;28;20636;-87
2022/09/12 04:03:08;;;;;;;19.40;6.03;;;10.20;90.30;;;;;;5115486;28;20169;-87
2022/09/12 04:05:34;;;;;;;40.53;6.67;;;10.30;90.50;;;;;;5115370;28;20202;-88
2022/09/12 04:08:00;;;;;;;7.13;6.43;;;10.20;90.50;;;;;;5115513;28;20177;-87
2022/09/12 04:10:26;;;;;;;7.83;6.50;;;10.20;90.60;;;;;;5115885;28;20635;-87
2022/09/12 04:12:51;;;;;;;11.80;6.97;;;10.30;90.60;;;;;;5115553;28;20178;-87
2022/09/12 04:15:17;;;;;;;18.40;7.97;;;10.30;90.70;;;;;;5115801;28;20178;-88
2022/09/12 04:17:43;;;;;;;24.77;7.83;;;10.30;90.70;;;;;;5115595;28;20214;-87
2022/09/12 04:20:08;;;;;;;13.40;8.40;;;10.30;90.80;;;;;;5115456;28;20640;-87
2022/09/12 04:22:34;;;;;;;38.87;8.40;;;10.30;90.90;;;;;;5115282;28;20215;-87
2022/09/12 04:24:59;;;;;;;75.40;8.83;;;10.30;90.90;;;;;;5116338;28;20607;-87
2022/09/12 04:27:25;;;;;;;31.53;8.27;;;10.30;91.00;;;;;;5115205;28;20226;-87
2022/09/12 04:29:50;;;;;;;28.60;8.93;;;10.30;91.10;;;;;;5115236;28;20574;-88
2022/09/12 04:32:17;;;;;;;56.90;11.80;;;10.30;91.20;;;;;;5115097;28;20256;-87
2022/09/12 04:34:43;;;;;;;28.83;8.03;;;10.30;91.30;;;;;;5115831;28;20589;-88
2022/09/12 04:37:10;;;;;;;37.90;8.30;;;10.30;91.40;;;;;;5115136;28;20281;-88
2022/09/12 04:39:36;;;;;;;23.90;9.17;;;10.30;91.60;;;;;;5116412;28;20173;-87
2022/09/12 04:42:03;;;;;;;34.90;8.43;;;10.30;91.70;;;;;;5116216;28;20167;-87
2022/09/12 04:44:29;;;;;;;37.67;9.00;;;10.30;91.80;;;;;;5116395;28;20546;-88
2022/09/12 04:46:54;;;;;;;24.40;8.77;;;10.30;91.80;;;;;;5115722;28;20243;-86
2022/09/12 04:49:20;;;;;;;31.00;9.53;;;10.30;91.90;;;;;;5116797;28;20644;-88
2022/09/12 04:51:46;;;;;;;9.27;8.43;;;10.40;91.90;;;;;;5114783;28;20265;-86
2022/09/12 04:54:17;;;;;;;9.37;8.57;;;10.40;92.00;;;;;;5115752;28;20170;-88
2022/09/12 04:56:47;;;;;;;8.20;7.37;;;10.50;92.00;;;;;;5114894;28;20297;-86
2022/09/12 04:59:14;;;;;;;9.47;7.63;;;10.50;92.00;;;;;;5115853;28;20169;-86
2022/09/12 05:01:40;;;;;;;8.10;7.50;;;10.50;92.00;;;;;;5114384;28;20201;-87
2022/09/12 05:04:06;;;;;;;8.40;7.70;;;10.60;92.00;;;;;;5114472;28;20200;-86
2022/09/12 05:06:34;;;;;;;9.13;8.23;;;10.50;92.00;;;;;;5114367;28;20201;-87
2022/09/12 05:09:02;;;;;;;8.13;7.43;;;10.60;92.10;;;;;;5114390;28;20177;-89
2022/09/12 05:11:31;;;;;;;8.53;7.83;;;10.60;92.10;;;;;;5115624;28;20549;-89
2022/09/12 05:13:57;;;;;;;15.53;8.10;;;10.60;92.10;;;;;;5114076;28;20184;-87
2022/09/12 05:16:24;;;;;;;28.30;8.83;;;10.60;92.00;;;;;;5114830;28;20622;-87
2022/09/12 05:18:50;;;;;;;29.57;8.17;;;10.60;92.10;;;;;;5113965;28;20699;-87
2022/09/12 05:21:18;;;;;;;27.90;8.17;;;10.50;92.00;;;;;;5114062;28;20174;-86
2022/09/12 05:23:44;;;;;;;9.37;8.23;;;10.50;92.10;;;;;;5113697;28;20547;-86
2022/09/12 05:26:13;;;;;;;8.90;8.07;;;10.50;92.10;;;;;;5114837;28;20242;-86
2022/09/12 05:28:39;;;;;;;13.23;8.73;;;10.40;92.10;;;;;;5113553;28;20181;-87
2022/09/12 05:31:06;;;;;;;10.57;8.47;;;10.30;92.20;;;;;;5114864;28;20178;-87
2022/09/12 05:33:33;;;;;;;13.07;8.93;;;10.30;92.20;;;;;;5113359;28;20182;-86
2022/09/12 05:35:59;;;;;;;13.10;9.50;;;10.20;92.30;;;;;;5113112;28;20265;-87
2022/09/12 05:38:24;;;;;;;10.93;9.83;;;10.20;92.30;;;;;;5114611;28;20193;-87
2022/09/12 05:40:50;;;;;;;10.20;9.30;;;10.30;92.40;;;;;;5113345;28;20643;-87
2022/09/12 05:43:16;;;;;;;10.37;9.30;;;10.30;92.50;;;;;;5113287;28;20178;-84
2022/09/12 05:45:42;;;;;;;11.43;9.53;;;10.40;92.50;;;;;;5114951;28;20777;-86
2022/09/12 05:48:08;;;;;;;10.87;9.87;;;10.50;92.60;;;;;;5114754;28;20256;-86
2022/09/12 05:50:33;;;;;;;29.63;10.20;;;10.60;92.60;;;;;;5113393;28;20170;-84
2022/09/12 05:52:59;;;;;;;55.63;12.63;;;10.70;92.60;;;;;;5114807;28;20224;-83
2022/09/12 05:55:25;;;;;;;13.23;10.30;;;10.70;92.70;;;;;;5113623;28;20215;-85
2022/09/12 05:57:50;;;;;;;9.70;8.80;;;10.80;92.60;;;;;;5113927;28;20186;-83
2022/09/12 06:00:17;;;;;;;35.43;10.23;;;10.80;92.70;;;;;;5114196;28;20231;-83
2022/09/12 06:02:43;;;;;;;23.90;9.70;;;10.90;92.70;;;;;;5113738;28;20197;-84
2022/09/12 06:05:09;;;;;;;22.10;10.17;;;10.90;92.70;;;;;;5113698;28;20575;-85
2022/09/12 06:07:35;;;;;;;12.17;9.57;;;11.00;92.70;;;;;;5112937;28;20204;-85
2022/09/12 06:10:02;;;;;;;17.17;10.03;;;11.00;92.70;;;;;;5113063;28;20651;-84
2022/09/12 06:12:29;;;;;;;18.23;11.00;;;11.10;92.80;;;;;;5114527;28;20181;-85
2022/09/12 06:14:55;;;;;;;28.30;12.00;;;11.20;92.90;;;;;;5112872;28;20189;-85
2022/09/12 06:17:21;;;;;;;16.30;12.17;;;11.20;93.00;;;;;;5113531;28;20677;-85
2022/09/12 06:19:46;;;;;;;20.67;13.00;;;11.30;93.10;;;;;;5115124;28;20206;-84
2022/09/12 06:22:12;;;;;;;19.97;13.57;;;11.30;93.10;;;;;;5113455;28;20196;-84
2022/09/12 06:24:38;;;;;;;17.47;13.83;;;11.50;93.20;;;;;;5113334;28;20212;-85
2022/09/12 06:27:04;;;;;;;24.07;15.13;;;11.70;93.30;;;;;;5113668;28;20621;-86
2022/09/12 06:29:31;;;;;;;20.57;14.63;;;11.80;93.40;;;;;;5114259;28;20563;-84
2022/09/12 06:31:57;;;;;;;15.77;14.37;;;11.90;93.50;;;;;;5114089;28;20230;-85
2022/09/12 06:34:23;;;;;;;17.07;15.43;;;11.90;93.60;;;;;;5114841;28;20178;-84
2022/09/12 06:36:49;;;;;;;18.00;16.30;;;12.00;93.70;;;;;;5115085;28;20295;-84
2022/09/12 06:39:20;;;;;;;18.07;16.37;;;12.20;93.80;;;;;;5113803;28;20200;-85
2022/09/12 06:41:47;;;;;;;18.10;16.23;;;12.30;93.80;;;;;;5114185;28;20536;-83
2022/09/12 06:44:15;;;;;;;16.93;15.33;;;12.40;93.90;;;;;;5115900;28;20258;-84
2022/09/12 06:46:41;;;;;;;19.17;17.27;;;12.50;93.90;;;;;;5114386;28;20193;-85
2022/09/12 06:49:07;;;;;;;17.90;16.13;;;12.50;94.00;;;;;;5113814;28;20177;-84
2022/09/12 06:51:35;;;;;;;19.17;17.20;;;12.40;94.00;;;;;;5113910;28;20189;-83
2022/09/12 06:54:00;;;;;;;20.73;17.00;;;12.60;94.10;;;;;;5113168;28;20205;-85
2022/09/12 06:56:27;;;;;;;20.03;17.97;;;12.60;94.10;;;;;;5114370;28;20194;-85
2022/09/12 06:58:55;;;;;;;19.97;17.90;;;12.70;94.20;;;;;;5114281;28;20169;-84
2022/09/12 07:01:26;;;;;;;20.77;18.60;;;12.80;94.30;;;;;;5112339;28;20194;-85
2022/09/12 07:03:58;;;;;;;19.83;17.83;;;12.90;94.30;;;;;;5113663;28;20194;-85
2022/09/12 07:06:30;;;;;;;19.43;17.40;;;12.90;94.20;;;;;;5112283;28;20239;-86
2022/09/12 07:09:00;;;;;;;22.83;19.00;;;13.00;94.40;;;;;;5114171;28;20158;-84
2022/09/12 07:11:30;;;;;;;23.13;19.27;;;13.20;94.50;;;;;;5113025;28;20170;-83
2022/09/12 07:13:57;;;;;;;22.20;19.63;;;13.30;94.50;;;;;;5114142;28;20177;-85
2022/09/12 07:16:23;;;;;;;22.00;19.60;;;13.40;94.50;;;;;;5112363;28;20212;-84
2022/09/12 07:19:00;;;;;;;21.47;19.27;;;13.40;94.50;;;;;;5114458;28;20644;-84
2022/09/12 07:21:26;;;;;;;21.87;19.47;;;13.50;94.50;;;;;;5113834;28;20245;-83
2022/09/12 07:23:55;;;;;;;22.70;20.43;;;13.60;94.50;;;;;;5114416;28;20278;-85
2022/09/12 07:26:21;;;;;;;24.63;22.07;;;13.70;94.60;;;;;;5112979;28;20564;-85
2022/09/12 07:28:52;;;;;;;24.53;22.07;;;13.80;94.70;;;;;;5112766;28;20166;-84
2022/09/12 07:31:19;;;;;;;26.57;22.03;;;13.80;94.60;;;;;;5115441;28;20158;-84
2022/09/12 07:33:45;;;;;;;25.40;22.57;;;14.00;94.60;;;;;;5114353;28;20655;-81
2022/09/12 07:36:13;;;;;;;26.93;22.10;;;14.10;94.70;;;;;;5116689;28;20266;-85
2022/09/12 07:38:40;;;;;;;26.90;23.40;;;14.20;94.70;;;;;;5116758;28;20171;-84
2022/09/12 07:41:17;;;;;;;27.30;24.40;;;14.50;94.80;;;;;;5117839;28;20174;-83
2022/09/12 07:43:43;;;;;;;29.60;25.07;;;14.60;94.80;;;;;;5119037;28;20178;-85
2022/09/12 07:46:09;;;;;;;30.47;25.10;;;14.70;94.70;;;;;;5118385;28;20186;-83
2022/09/12 07:48:34;;;;;;;31.73;25.63;;;14.70;94.60;;;;;;5119343;28;20578;-84
2022/09/12 07:51:02;;;;;;;31.13;26.23;;;14.80;94.60;;;;;;5118418;28;20166;-84
2022/09/12 07:53:33;;;;;;;30.40;23.83;;;14.90;94.50;;;;;;5118332;28;20173;-84
2022/09/12 07:56:01;;;;;;;31.50;24.43;;;15.10;94.50;;;;;;5118909;27;20557;-85
2022/09/12 07:58:27;;;;;;;27.10;23.88;;;15.20;94.50;;;;;;5118243;28;20644;-84
2022/09/12 08:00:53;;;;;;;26.02;23.40;;;15.30;94.30;;;;;;5117091;28;20273;-85
2022/09/12 08:03:19;;;;;;;24.20;21.55;;;15.40;94.20;;;;;;5118442;28;20165;-86
2022/09/12 08:05:45;;;;;;;26.48;21.65;;;15.50;94.10;;;;;;5118305;28;20190;-85
2022/09/12 08:08:11;;;;;;;23.33;21.02;;;15.50;93.80;;;;;;5116442;28;20185;-86
2022/09/12 08:10:36;;;;;;;20.75;18.80;;;15.60;93.60;;;;;;5117129;28;20209;-84
2022/09/12 08:13:02;;;;;;;21.15;18.95;;;15.70;92.70;;;;;;5119740;28;20178;-84
2022/09/12 08:15:28;;;;;;;20.00;18.02;;;15.80;92.40;;;;;;5118583;28;20182;-83
2022/09/12 08:17:54;;;;;;;18.33;16.63;;;16.00;92.20;;;;;;5119024;28;20215;-84
2022/09/12 08:20:20;;;;;;;19.77;16.20;;;16.20;92.20;;;;;;5118726;28;20249;-84
2022/09/12 08:22:45;;;;;;;16.73;15.10;;;16.30;92.20;;;;;;5115912;28;20565;-85
2022/09/12 08:25:11;;;;;;;15.98;13.73;;;16.40;92.00;;;;;;5116138;28;20190;-83
2022/09/12 08:27:36;;;;;;;13.00;11.70;;;16.50;91.80;;;;;;5117416;28;20197;-85
2022/09/12 08:30:04;;;;;;;12.40;11.07;;;16.60;91.50;;;;;;5116715;28;20174;-86
2022/09/12 08:32:29;;;;;;;14.48;10.18;;;16.60;90.70;;;;;;5115564;28;20219;-84
2022/09/12 08:34:55;;;;;;;16.48;10.02;;;16.70;89.90;;;;;;5117433;28;20174;-86
2022/09/12 08:37:20;;;;;;;9.82;9.00;;;16.70;89.30;;;;;;5118174;28;20193;-83
2022/09/12 08:39:46;;;;;;;8.95;8.15;;;16.80;89.10;;;;;;5115259;28;20184;-84
2022/09/12 08:42:50;;;;;;;9.10;7.60;;;16.90;89.10;;;;;;5117047;28;20166;-83
2022/09/12 08:45:37;;;;;;;7.80;7.10;;;17.00;88.80;;;;;;5082470;28;20266;-83
2022/09/12 08:48:04;;;;;;;6.88;6.32;;;17.00;87.20;;;;;;5116016;28;20150;-84
2022/09/12 08:50:31;;;;;;;80.25;71.57;;;17.00;85.30;;;;;;5114554;28;20658;-83
2022/09/12 08:53:03;;;;;;;8.60;7.70;;;17.20;85.60;;;;;;5117577;28;20170;-83
2022/09/12 08:55:39;;;;;;;6.78;6.07;;;17.30;84.90;;;;;;5114808;28;20632;-84
2022/09/12 08:58:16;;;;;;;6.60;5.90;;;17.20;83.90;;;;;;5115684;28;20517;-85
2022/09/12 09:01:06;;;;;;;7.50;6.10;;;17.30;83.60;;;;;;5116008;28;20184;-84
2022/09/12 09:04:09;;;;;;;6.38;5.78;;;17.50;84.10;;;;;;5114647;28;20652;-85
2022/09/12 09:06:47;;;;;;;7.68;6.05;;;17.60;84.20;;;;;;5114922;28;20201;-83
2022/09/12 09:09:51;;;;;;;8.88;6.45;;;17.70;84.50;;;;;;5114611;28;20173;-84
2022/09/12 09:12:44;;;;;;;7.60;6.25;;;17.80;83.90;;;;;;5116026;27;20240;-85
2022/09/12 09:15:31;;;;;;;9.27;6.13;;;17.80;83.20;;;;;;5115611;28;20174;-84
2022/09/12 09:18:03;;;;;;;9.73;5.57;;;17.80;82.10;;;;;;5115304;27;20166;-84
2022/09/12 09:20:38;;;;;;;14.60;5.53;;;17.90;82.10;;;;;;5115019;28;20527;-85
2022/09/12 09:23:11;;;;;;;7.20;6.00;;;17.90;81.60;;;;;;5119343;28;20217;-84
2022/09/12 09:25:56;;;;;;;7.18;5.78;;;18.00;81.60;;;;;;5116479;28;20257;-86
2022/09/12 09:28:31;;;;;;;7.38;4.95;;;18.00;81.40;;;;;;5114815;28;20316;-85
2022/09/12 09:30:57;;;;;;;5.15;4.70;;;18.20;82.20;;;;;;5115097;28;20165;-85
2022/09/12 09:33:27;;;;;;;10.65;9.55;;;18.20;82.10;;;;;;5115359;28;20243;-86
2022/09/12 09:36:12;;;;;;;7.35;6.55;;;18.30;81.10;;;;;;5115491;28;20202;-84
2022/09/12 09:38:52;;;;;;;9.00;5.25;;;18.30;80.90;;;;;;5115603;28;20176;-84
2022/09/12 09:41:29;;;;;;;6.50;5.03;;;18.40;79.90;;;;;;5116549;28;20704;-86
2022/09/12 09:43:56;;;;;;;6.90;4.07;;;18.50;79.90;;;;;;5114341;28;20197;-85
2022/09/12 09:46:22;;;;;;;5.97;3.88;;;18.70;80.50;;;;;;5116109;28;20219;-86
2022/09/12 09:48:49;;;;;;;5.18;4.10;;;18.70;78.40;;;;;;5114722;28;20252;-85
2022/09/12 09:51:17;;;;;;;6.65;3.60;;;18.70;77.50;;;;;;5115692;28;20181;-85
2022/09/12 09:53:50;;;;;;;7.38;3.50;;;18.80;78.20;;;;;;5115773;28;20218;-85
2022/09/12 09:56:38;;;;;;;4.20;3.25;;;19.00;77.90;;;;;;5116079;28;20205;-85
2022/09/12 09:59:10;;;;;;;3.15;2.90;;;19.10;77.20;;;;;;5116450;28;20166;-85
2022/09/12 10:01:38;;;;;;;3.78;3.40;;;19.20;76.30;;;;;;5113191;28;20193;-85
2022/09/12 10:04:04;;;;;;;3.67;3.38;;;19.20;76.20;;;;;;5118626;28;20198;-86
2022/09/12 10:06:33;;;;;;;3.85;3.00;;;19.20;75.50;;;;;;5116588;28;20201;-87
2022/09/12 10:09:13;;;;;;;6.50;3.30;;;19.20;75.40;;;;;;5115742;28;20170;-86
2022/09/12 10:11:39;;;;;;;3.58;3.15;;;19.40;75.60;;;;;;5114361;28;20178;-86
2022/09/12 10:14:25;;;;;;;3.08;2.75;;;19.50;75.10;;;;;;5115256;28;20231;-86
2022/09/12 10:16:53;;;;;;;6.45;2.72;;;19.40;74.50;;;;;;5113982;28;20609;-86
2022/09/12 10:19:32;;;;;;;3.08;2.72;;;19.50;74.80;;;;;;5114351;28;20248;-86
2022/09/12 10:21:59;;;;;;;3.50;2.70;;;19.50;73.70;;;;;;5114147;28;20204;-86
2022/09/12 10:24:31;;;;;;;4.07;3.17;;;19.50;74.20;;;;;;5113605;28;20239;-86
2022/09/12 10:27:12;;;;;;;4.65;2.92;;;19.50;74.50;;;;;;5115081;28;20189;-86
2022/09/12 10:29:53;;;;;;;5.07;2.65;;;19.50;73.70;;;;;;5113790;28;20177;-86
2022/09/12 10:32:41;;;;;;;5.18;2.95;;;19.70;74.40;;;;;;5114091;28;20654;-86
2022/09/12 10:35:26;;;;;;;6.32;2.83;;;19.80;73.80;;;;;;5117187;28;20205;-87
2022/09/12 10:38:05;;;;;;;4.90;3.25;;;19.80;73.10;;;;;;5114431;28;20166;-87
2022/09/12 10:40:36;;;;;;;3.60;3.00;;;19.70;73.00;;;;;;5119177;28;20177;-88
2022/09/12 10:43:25;;;;;;;4.30;3.08;;;19.70;72.60;;;;;;5114269;28;20636;-87
2022/09/12 10:45:55;;;;;;;3.20;2.97;;;19.90;73.90;;;;;;5113007;28;20557;-86
2022/09/12 10:48:27;;;;;;;5.40;3.28;;;20.00;73.70;;;;;;5114770;28;20174;-86
2022/09/12 10:50:52;;;;;;;3.00;2.72;;;20.00;72.50;;;;;;5113316;28;20162;-86
2022/09/12 10:53:27;;;;;;;3.35;2.60;;;19.90;71.30;;;;;;5114302;28;20170;-86
2022/09/12 10:56:22;;;;;;;5.55;2.67;;;20.10;73.00;;;;;;5113936;28;20189;-86
2022/09/12 10:59:15;;;;;;;4.53;2.80;;;20.30;72.60;;;;;;5113885;28;20177;-86
2022/09/12 11:01:47;;;;;;;2.60;2.28;;;20.20;71.20;;;;;;5116260;28;20663;-85
2022/09/12 11:04:26;;;;;;;3.17;2.60;;;20.30;71.80;;;;;;5113880;28;20288;-85
2022/09/12 11:07:24;;;;;;;2.85;2.33;;;20.50;71.60;;;;;;5115275;28;20264;-87
2022/09/12 11:10:27;;;;;;;2.50;2.30;;;20.70;71.60;;;;;;5113909;28;20177;-86
2022/09/12 11:13:23;;;;;;;3.88;2.58;;;20.50;69.20;;;;;;5111514;28;20192;-86
2022/09/12 11:16:18;;;;;;;2.85;2.40;;;20.70;69.20;;;;;;5117780;28;20185;-86
2022/09/12 11:19:09;;;;;;;2.38;2.10;;;20.60;67.50;;;;;;5117883;28;20147;-86
2022/09/12 11:22:12;;;;;;;4.22;2.65;;;20.70;68.80;;;;;;5117826;28;20518;-86
2022/09/12 11:25:16;;;;;;;4.13;2.40;;;20.60;69.50;;;;;;5115110;28;20201;-84
2022/09/12 11:28:14;;;;;;;2.65;2.13;;;20.40;69.00;;;;;;5116532;28;20194;-86
2022/09/12 11:31:02;;;;;;;7.22;2.20;;;20.40;69.90;;;;;;5117964;28;20169;-87
2022/09/12 11:33:46;;;;;;;6.55;2.38;;;20.30;70.40;;;;;;5088247;28;20639;-87
2022/09/12 11:36:25;;;;;;;3.30;3.00;;;20.40;70.50;;;;;;5117434;28;20663;-86
2022/09/12 11:39:01;;;;;;;4.95;2.38;;;20.30;69.40;;;;;;5117868;28;20170;-85
2022/09/12 11:41:32;;;;;;;2.90;2.60;;;20.20;69.60;;;;;;5118731;28;20168;-86
2022/09/12 11:44:01;;;;;;;3.42;2.30;;;20.30;68.70;;;;;;5120625;28;20238;-86
2022/09/12 11:46:30;;;;;;;3.10;2.20;;;20.40;70.70;;;;;;5116185;28;20194;-86
2022/09/12 11:49:03;;;;;;;2.40;2.20;;;20.50;69.50;;;;;;5116237;28;20174;-86
2022/09/12 11:51:39;;;;;;;2.85;2.65;;;20.60;69.00;;;;;;5118045;28;20162;-87
2022/09/12 11:54:23;;;;;;;3.17;2.40;;;20.70;68.50;;;;;;5116868;28;20173;-86
2022/09/12 11:57:12;;;;;;;2.75;2.22;;;21.00;68.60;;;;;;5116969;28;20201;-84
2022/09/12 11:59:59;;;;;;;7.25;2.58;;;20.90;66.00;;;;;;5118706;28;20554;-85
2022/09/12 12:02:37;;;;;;;3.88;2.53;;;21.10;67.90;;;;;;5120751;28;20193;-85
2022/09/12 12:05:27;;;;;;;5.68;3.10;;;21.40;65.90;;;;;;5119189;27;20190;-85
2022/09/12 12:07:56;;;;;;;3.72;2.67;;;21.60;65.20;;;;;;5120453;28;20535;-86
2022/09/12 12:11:01;;;;;;;6.95;3.42;;;21.50;66.10;;;;;;5117083;28;20181;-86
2022/09/12 12:13:32;;;;;;;3.95;2.80;;;21.60;65.30;;;;;;5108326;28;20174;-89
2022/09/12 12:16:11;;;;;;;4.32;3.65;;;21.60;66.70;;;;;;5117892;28;20190;-88
2022/09/12 12:18:38;;;;;;;7.53;3.53;;;21.70;64.90;;;;;;5116126;28;20199;-86
2022/09/12 12:21:38;;;;;;;5.82;4.38;;;21.70;63.60;;;;;;5116826;28;20647;-85
2022/09/12 12:24:07;;;;;;;5.80;3.67;;;21.50;62.80;;;;;;5116555;28;20605;-87
2022/09/12 12:26:39;;;;;;;7.40;4.05;;;21.60;64.70;;;;;;5115373;28;20200;-86
2022/09/12 12:29:16;;;;;;;8.68;3.95;;;21.60;64.70;;;;;;5116332;28;20545;-86
2022/09/12 12:32:18;;;;;;;4.97;4.05;;;21.80;65.20;;;;;;5115236;28;20282;-86
2022/09/12 12:34:46;;;;;;;7.78;4.70;;;21.60;64.40;;;;;;5107521;28;20192;-84
2022/09/12 12:37:17;;;;;;;6.43;4.68;;;21.50;64.80;;;;;;5114649;28;20206;-85
2022/09/12 12:39:43;;;;;;;9.45;4.43;;;21.50;66.00;;;;;;5114521;28;20205;-84
2022/09/12 12:42:09;;;;;;;7.00;4.65;;;21.70;66.50;;;;;;5115578;28;20194;-85
2022/09/12 12:44:44;;;;;;;8.27;4.70;;;21.80;66.30;;;;;;5115966;28;20240;-85
2022/09/12 12:47:24;;;;;;;5.70;5.00;;;21.80;66.20;;;;;;5115224;28;20196;-84
2022/09/12 12:49:57;;;;;;;8.20;5.72;;;21.80;66.10;;;;;;5114779;28;20181;-85
2022/09/12 12:52:26;;;;;;;5.80;5.15;;;21.90;66.60;;;;;;5114378;28;20177;-84
2022/09/12 12:54:55;;;;;;;7.50;5.57;;;21.60;64.70;;;;;;5117605;27;20188;-85
2022/09/12 12:57:26;;;;;;;6.53;5.05;;;21.50;66.00;;;;;;5113975;28;20190;-87
2022/09/12 13:00:04;;;;;;;5.90;5.13;;;21.60;67.70;;;;;;5115955;28;20162;-87
2022/09/12 13:02:38;;;;;;;9.80;6.25;;;21.90;67.80;;;;;;5117123;28;20663;-86
2022/09/12 13:05:14;;;;;;;7.22;5.63;;;21.90;65.30;;;;;;5116345;28;20193;-84
2022/09/12 13:07:42;;;;;;;6.97;5.90;;;21.50;64.40;;;;;;5115254;28;20185;-84
2022/09/12 13:10:25;;;;;;;9.40;6.85;;;21.20;66.60;;;;;;5113672;28;20198;-85